Terminal Aerodrome Forecast
Issued by NWS

Home | Current Version | Previous Version | Text Only | Print | Product List | Glossary On
Versions: 1 2 3 4 5 6 7 8 9 10 11 12 13 14 15 16 17 18 19 20 21 22 23
000
FTUS43 KLSX 260200 AAA
TAFSUS
TAF AMD
KSUS 260202Z 2602/2624 02005KT 4SM -TSRA SCT015CB BKN080
     FM260300 35012KT 3SM -RA BR SCT009 OVC015
     FM261100 33012KT P6SM BKN100
     FM261800 32012KT P6SM SKC=

USA.gov is the U.S. government's official web portal to all federal, state and local government web resources and services.